createdAt,value
2017-06-05T00:01:23.552Z,20.90
2017-06-05T00:03:51.113Z,20.90
2017-06-05T00:06:18.676Z,20.90
2017-06-05T00:08:46.208Z,20.90
2017-06-05T00:11:13.751Z,20.90
2017-06-05T00:13:41.292Z,20.70
2017-06-05T00:16:08.826Z,20.60
2017-06-05T00:18:36.439Z,20.60
2017-06-05T00:21:04.742Z,20.60
2017-06-05T00:23:32.354Z,20.60
2017-06-05T00:25:59.862Z,20.50
2017-06-05T00:28:28.192Z,20.40
2017-06-05T00:30:55.718Z,20.40
2017-06-05T00:33:23.300Z,20.10
2017-06-05T00:35:50.827Z,20.00
2017-06-05T00:38:19.134Z,19.80
2017-06-05T00:40:46.689Z,19.80
2017-06-05T00:43:14.228Z,19.60
2017-06-05T00:45:41.753Z,19.70
2017-06-05T00:48:09.325Z,19.60
2017-06-05T00:50:36.862Z,19.70
2017-06-05T00:55:38.290Z,19.70
2017-06-05T00:58:05.826Z,19.60
2017-06-05T01:00:34.106Z,19.50
2017-06-05T01:03:02.400Z,19.40
2017-06-05T01:05:29.903Z,19.40
2017-06-05T01:07:57.493Z,19.40
2017-06-05T01:10:25.794Z,19.10
2017-06-05T01:12:53.305Z,19.10
2017-06-05T01:15:20.832Z,19.00
2017-06-05T01:17:48.355Z,18.90
2017-06-05T01:20:16.639Z,18.80
2017-06-05T01:22:44.917Z,18.70
2017-06-05T01:25:13.235Z,18.70
2017-06-05T01:27:40.756Z,18.70
2017-06-05T01:30:08.293Z,18.70
2017-06-05T01:32:35.819Z,18.60
2017-06-05T01:35:03.341Z,18.50
2017-06-05T01:37:30.867Z,18.50
2017-06-05T01:39:58.395Z,18.50
2017-06-05T01:42:25.901Z,18.40
2017-06-05T01:44:54.195Z,18.40
2017-06-05T01:47:21.703Z,18.30
2017-06-05T01:49:49.264Z,18.30
2017-06-05T01:52:16.771Z,18.30
2017-06-05T01:54:44.316Z,18.20
2017-06-05T01:57:12.604Z,18.10
2017-06-05T01:59:40.123Z,18.00
2017-06-05T02:02:08.448Z,17.90
2017-06-05T02:04:36.025Z,17.90
2017-06-05T02:07:03.551Z,17.90
2017-06-05T02:09:31.845Z,17.70
2017-06-05T02:11:59.368Z,17.70
2017-06-05T02:14:26.932Z,17.60
2017-06-05T02:16:54.463Z,17.60
2017-06-05T02:19:21.999Z,17.60
2017-06-05T02:21:49.595Z,17.50
2017-06-05T02:24:17.932Z,17.40
2017-06-05T02:26:45.546Z,17.30
2017-06-05T02:29:13.083Z,17.30
2017-06-05T02:31:40.608Z,17.10
2017-06-05T02:34:08.140Z,17.00
2017-06-05T02:36:36.418Z,16.80
2017-06-05T02:39:04.744Z,16.90
2017-06-05T02:41:32.302Z,16.90
2017-06-05T02:43:59.859Z,16.90
2017-06-05T02:46:27.374Z,16.90
2017-06-05T02:48:55.687Z,17.00
2017-06-05T02:51:23.233Z,16.90
2017-06-05T02:53:50.788Z,16.90
2017-06-05T02:56:18.341Z,16.90
2017-06-05T02:58:45.884Z,16.90
2017-06-05T03:01:13.468Z,17.00
2017-06-05T03:03:40.986Z,17.00
2017-06-05T03:06:08.640Z,17.10
2017-06-05T03:08:36.160Z,17.20
2017-06-05T03:11:03.704Z,17.10
2017-06-05T03:13:32.016Z,17.20
2017-06-05T03:15:59.571Z,17.20
2017-06-05T03:18:27.094Z,17.20
2017-06-05T03:20:54.686Z,17.30
2017-06-05T03:23:22.194Z,17.30
2017-06-05T03:25:50.497Z,17.40
2017-06-05T03:28:18.828Z,17.50
2017-06-05T03:30:46.409Z,17.50
2017-06-05T03:33:14.721Z,17.50
2017-06-05T03:35:42.239Z,17.50
2017-06-05T03:38:09.785Z,17.50
2017-06-05T03:40:37.339Z,17.60
2017-06-05T03:43:04.857Z,17.60
2017-06-05T03:45:32.388Z,17.60
2017-06-05T03:47:59.908Z,17.60
2017-06-05T03:50:27.491Z,17.60
2017-06-05T03:52:55.002Z,17.50
2017-06-05T03:55:22.518Z,17.50
2017-06-05T03:57:50.026Z,17.50
2017-06-05T04:00:17.561Z,17.60
2017-06-05T04:02:45.834Z,17.60
2017-06-05T04:05:13.394Z,17.60
2017-06-05T04:07:41.683Z,17.80
2017-06-05T04:10:09.998Z,17.70
2017-06-05T04:12:37.521Z,17.70
2017-06-05T04:15:05.824Z,17.70
2017-06-05T04:17:33.357Z,17.70
2017-06-05T04:20:01.732Z,17.70
2017-06-05T04:22:29.248Z,17.70
2017-06-05T04:24:56.827Z,17.80
2017-06-05T04:27:24.398Z,18.00
2017-06-05T04:29:51.982Z,18.00
2017-06-05T04:32:19.539Z,18.10
2017-06-05T04:34:47.057Z,18.10
2017-06-05T04:37:14.604Z,18.20
2017-06-05T04:39:42.137Z,18.30
2017-06-05T04:42:09.667Z,18.20
2017-06-05T04:44:37.948Z,18.40
2017-06-05T04:47:06.256Z,18.40
2017-06-05T04:49:33.781Z,18.40
2017-06-05T04:52:02.070Z,18.50
2017-06-05T04:54:29.626Z,18.50
2017-06-05T04:56:57.192Z,18.60
2017-06-05T04:59:24.715Z,18.70
2017-06-05T05:01:52.253Z,18.80
2017-06-05T05:04:19.773Z,18.80
2017-06-05T05:06:47.329Z,18.80
2017-06-05T05:09:14.883Z,19.00
2017-06-05T05:11:42.425Z,19.20
2017-06-05T05:14:09.965Z,19.20
2017-06-05T05:16:37.512Z,19.30
2017-06-05T05:19:05.041Z,19.20
2017-06-05T05:21:32.605Z,19.10
2017-06-05T05:24:00.157Z,19.20
2017-06-05T05:26:27.695Z,19.20
2017-06-05T05:28:55.990Z,19.10
2017-06-05T05:31:23.541Z,19.10
2017-06-05T05:33:51.064Z,19.20
2017-06-05T05:36:18.589Z,19.50
2017-06-05T05:38:46.153Z,19.60
2017-06-05T05:41:13.684Z,19.80
2017-06-05T05:43:41.238Z,19.70
2017-06-05T05:46:09.550Z,19.80
2017-06-05T05:48:37.080Z,19.80
2017-06-05T05:51:04.672Z,20.00
2017-06-05T05:53:32.170Z,20.10
2017-06-05T05:55:59.732Z,20.50
2017-06-05T05:58:27.278Z,20.90
2017-06-05T06:00:54.860Z,21.20
2017-06-05T06:03:23.148Z,21.60
2017-06-05T06:05:50.696Z,21.50
2017-06-05T06:08:18.284Z,21.70
2017-06-05T06:10:45.786Z,21.80
2017-06-05T06:13:13.382Z,21.90
2017-06-05T06:15:41.661Z,21.80
2017-06-05T06:18:09.969Z,22.00
2017-06-05T06:20:37.503Z,22.00
2017-06-05T06:23:05.032Z,22.10
2017-06-05T06:25:32.543Z,22.30
2017-06-05T06:28:00.075Z,22.30
2017-06-05T06:30:28.352Z,22.60
2017-06-05T06:32:56.687Z,22.60
2017-06-05T06:35:24.200Z,22.50
2017-06-05T06:37:52.520Z,22.60
2017-06-05T06:40:20.040Z,22.50
2017-06-05T06:42:47.734Z,23.00
2017-06-05T06:45:15.263Z,23.20
2017-06-05T06:47:42.800Z,23.50
2017-06-05T06:50:10.391Z,23.90
2017-06-05T06:52:37.947Z,24.10
2017-06-05T06:55:05.522Z,24.30
2017-06-05T06:57:33.076Z,24.50
2017-06-05T07:00:00.633Z,25.00
2017-06-05T07:02:28.165Z,25.50
2017-06-05T07:04:55.700Z,26.20
2017-06-05T07:07:23.232Z,26.70
2017-06-05T07:09:50.751Z,26.90
2017-06-05T07:12:18.268Z,27.20
2017-06-05T07:14:45.807Z,27.20
2017-06-05T07:17:13.368Z,27.80
2017-06-05T07:19:40.898Z,28.20
2017-06-05T07:22:08.447Z,27.90
2017-06-05T07:24:36.741Z,28.00
2017-06-05T07:27:04.262Z,28.00
2017-06-05T07:29:31.784Z,27.90
2017-06-05T07:31:59.339Z,27.40
2017-06-05T07:34:26.896Z,27.10
2017-06-05T07:36:54.491Z,27.20
2017-06-05T07:39:22.003Z,27.10
2017-06-05T07:41:49.528Z,27.30
2017-06-05T07:44:17.036Z,27.90
2017-06-05T07:46:44.593Z,27.50
2017-06-05T07:49:12.122Z,27.80
2017-06-05T07:51:40.406Z,29.00
2017-06-05T07:54:08.720Z,29.00
2017-06-05T07:56:36.245Z,29.00
2017-06-05T07:59:03.775Z,28.90
2017-06-05T08:01:31.274Z,29.00
2017-06-05T08:03:58.837Z,28.80
2017-06-05T08:06:26.376Z,28.50
2017-06-05T08:08:54.673Z,30.00
2017-06-05T08:11:22.196Z,29.90
2017-06-05T08:13:49.816Z,28.90
2017-06-05T08:16:17.367Z,28.90
2017-06-05T08:18:44.914Z,29.50
2017-06-05T08:21:12.448Z,30.20
2017-06-05T08:23:40.782Z,31.20
2017-06-05T08:26:08.771Z,31.20
2017-06-05T08:28:36.421Z,30.30
2017-06-05T08:31:03.946Z,30.00
2017-06-05T08:33:31.491Z,30.30
2017-06-05T08:35:59.918Z,30.30
2017-06-05T08:38:27.518Z,30.30
2017-06-05T08:40:56.084Z,29.80
2017-06-05T08:43:23.707Z,29.80
2017-06-05T08:45:51.274Z,29.90
2017-06-05T08:48:18.860Z,29.60
2017-06-05T08:50:46.375Z,29.80
2017-06-05T08:53:13.883Z,30.20
2017-06-05T08:55:41.487Z,30.70
2017-06-05T08:58:09.071Z,30.50
2017-06-05T09:00:36.644Z,30.10
2017-06-05T09:03:04.176Z,30.20
2017-06-05T09:05:31.699Z,30.00
2017-06-05T09:07:59.271Z,28.80
2017-06-05T09:10:26.842Z,29.40
2017-06-05T09:12:54.376Z,30.00
2017-06-05T09:15:21.933Z,30.60
2017-06-05T09:17:49.438Z,31.30
2017-06-05T09:20:16.997Z,31.10
2017-06-05T09:22:44.542Z,31.40
2017-06-05T09:25:12.062Z,31.70
2017-06-05T09:27:39.572Z,31.90
2017-06-05T09:30:07.122Z,32.10
2017-06-05T09:32:34.712Z,32.30
2017-06-05T09:35:02.250Z,31.50
2017-06-05T09:37:29.763Z,31.40
2017-06-05T09:39:57.297Z,32.40
2017-06-05T09:42:24.812Z,33.00
2017-06-05T09:44:52.349Z,33.80
2017-06-05T09:47:19.904Z,33.70
2017-06-05T09:49:47.439Z,33.60
2017-06-05T09:52:14.983Z,33.50
2017-06-05T09:54:42.509Z,32.40
2017-06-05T09:57:10.056Z,33.10
2017-06-05T09:59:38.378Z,34.00
2017-06-05T10:02:05.927Z,33.90
2017-06-05T10:04:33.457Z,33.40
2017-06-05T10:07:01.857Z,33.00
2017-06-05T10:09:29.398Z,33.00
2017-06-05T10:11:57.704Z,33.40
2017-06-05T10:14:25.236Z,33.50
2017-06-05T10:16:53.560Z,35.60
2017-06-05T10:19:21.086Z,35.60
2017-06-05T10:21:48.615Z,35.50
2017-06-05T10:24:16.173Z,36.70
2017-06-05T10:26:43.751Z,37.80
2017-06-05T10:29:12.164Z,37.50
2017-06-05T10:31:39.704Z,37.40
2017-06-05T10:34:07.214Z,37.40
2017-06-05T10:36:34.769Z,37.80
2017-06-05T10:39:02.282Z,38.00
2017-06-05T10:41:29.857Z,37.80
2017-06-05T10:43:57.383Z,38.00
2017-06-05T10:46:25.676Z,37.70
2017-06-05T10:48:53.239Z,37.70
2017-06-05T10:51:20.762Z,38.50
2017-06-05T10:53:48.300Z,38.50
2017-06-05T10:56:15.866Z,38.30
2017-06-05T10:58:43.388Z,38.80
2017-06-05T11:01:10.972Z,38.00
2017-06-05T11:03:38.576Z,37.30
2017-06-05T11:06:06.087Z,37.70
2017-06-05T11:08:33.631Z,37.60
2017-06-05T11:11:01.188Z,38.30
2017-06-05T11:13:28.746Z,38.90
2017-06-05T11:15:56.282Z,38.50
2017-06-05T11:18:24.634Z,38.00
2017-06-05T11:20:52.147Z,38.00
2017-06-05T11:23:19.746Z,37.50
2017-06-05T11:25:47.270Z,37.10
2017-06-05T11:28:14.794Z,37.40
2017-06-05T11:30:43.108Z,38.30
2017-06-05T11:33:10.956Z,38.30
2017-06-05T11:35:38.502Z,38.50
2017-06-05T11:38:06.798Z,38.20
2017-06-05T11:40:34.355Z,38.20
2017-06-05T11:43:02.169Z,38.50
2017-06-05T11:45:29.685Z,37.50
2017-06-05T11:47:57.272Z,35.80
2017-06-05T11:50:24.803Z,34.50
2017-06-05T11:52:52.359Z,34.70
2017-06-05T11:55:19.914Z,35.90
2017-06-05T11:57:47.466Z,36.80
2017-06-05T12:00:15.006Z,37.50
2017-06-05T12:02:42.558Z,37.20
2017-06-05T12:05:10.070Z,38.00
2017-06-05T12:07:37.592Z,38.40
2017-06-05T12:10:05.107Z,37.60
2017-06-05T12:12:32.631Z,37.90
2017-06-05T12:15:00.922Z,38.90
2017-06-05T12:17:28.475Z,38.90
2017-06-05T12:19:56.011Z,38.70
2017-06-05T12:22:23.584Z,39.40
2017-06-05T12:24:51.117Z,39.40
2017-06-05T12:27:18.688Z,39.00
2017-06-05T12:29:46.178Z,37.30
2017-06-05T12:32:13.755Z,35.80
2017-06-05T12:34:41.287Z,34.40
2017-06-05T12:37:09.626Z,34.60
2017-06-05T12:39:37.160Z,34.60
2017-06-05T12:42:04.697Z,35.00
2017-06-05T12:44:32.213Z,34.40
2017-06-05T12:46:59.749Z,32.10
2017-06-05T12:49:27.295Z,32.00
2017-06-05T12:51:54.874Z,32.30
2017-06-05T12:54:22.417Z,33.90
2017-06-05T12:56:50.008Z,34.90
2017-06-05T12:59:17.518Z,34.60
2017-06-05T13:01:45.055Z,33.50
2017-06-05T13:04:13.388Z,32.20
2017-06-05T13:06:40.949Z,32.20
2017-06-05T13:09:08.515Z,32.70
2017-06-05T13:11:36.042Z,32.50
2017-06-05T13:14:03.582Z,32.40
2017-06-05T13:16:31.884Z,34.10
2017-06-05T13:18:59.450Z,34.10
2017-06-05T13:21:26.948Z,34.30
2017-06-05T13:23:54.478Z,34.80
2017-06-05T13:26:21.997Z,35.80
2017-06-05T13:28:50.304Z,35.90
2017-06-05T13:31:17.848Z,35.90
2017-06-05T13:33:45.438Z,36.50
2017-06-05T13:36:12.950Z,36.40
2017-06-05T13:38:41.248Z,34.50
2017-06-05T13:41:08.802Z,34.50
2017-06-05T13:43:36.322Z,32.70
2017-06-05T13:46:03.834Z,33.10
2017-06-05T13:48:31.386Z,32.70
2017-06-05T13:50:58.935Z,32.90
2017-06-05T13:53:26.472Z,33.20
2017-06-05T13:55:54.744Z,35.00
2017-06-05T13:58:22.317Z,34.90
2017-06-05T14:00:50.604Z,36.10
2017-06-05T14:03:18.916Z,36.60
2017-06-05T14:05:46.443Z,36.60
2017-06-05T14:08:14.754Z,35.70
2017-06-05T14:10:42.286Z,35.70
2017-06-05T14:13:09.843Z,35.10
2017-06-05T14:15:37.358Z,33.90
2017-06-05T14:18:04.926Z,33.10
2017-06-05T14:20:32.422Z,33.30
2017-06-05T14:22:59.993Z,33.70
2017-06-05T14:25:27.495Z,33.40
2017-06-05T14:27:55.060Z,33.40
2017-06-05T14:30:22.623Z,32.60
2017-06-05T14:32:50.182Z,31.60
2017-06-05T14:35:17.713Z,30.90
2017-06-05T14:37:45.255Z,30.40
2017-06-05T14:40:12.827Z,30.40
2017-06-05T14:42:40.374Z,30.50
2017-06-05T14:45:07.934Z,30.20
2017-06-05T14:47:35.482Z,29.80
2017-06-05T14:50:03.062Z,30.00
2017-06-05T14:52:30.626Z,30.20
2017-06-05T14:54:58.175Z,30.20
2017-06-05T14:57:25.690Z,29.80
2017-06-05T14:59:54.039Z,29.50
2017-06-05T15:02:21.554Z,29.50
2017-06-05T15:04:49.859Z,30.10
2017-06-05T15:07:17.422Z,30.10
2017-06-05T15:09:45.012Z,30.00
2017-06-05T15:12:12.552Z,29.40
2017-06-05T15:14:40.089Z,29.50
2017-06-05T15:17:07.604Z,29.90
2017-06-05T15:19:35.909Z,28.90
2017-06-05T15:22:03.447Z,29.00
2017-06-05T15:24:30.975Z,28.80
2017-06-05T15:26:58.490Z,28.90
2017-06-05T15:29:26.028Z,29.10
2017-06-05T15:31:53.617Z,29.10
2017-06-05T15:34:21.179Z,28.70
2017-06-05T15:36:48.706Z,28.40
2017-06-05T15:39:16.278Z,28.80
2017-06-05T15:41:44.612Z,28.30
2017-06-05T15:44:12.210Z,28.30
2017-06-05T15:46:40.519Z,28.80
2017-06-05T15:49:08.052Z,28.80
2017-06-05T15:51:36.338Z,29.20
2017-06-05T15:54:04.650Z,29.30
2017-06-05T15:56:32.177Z,29.30
2017-06-05T15:58:59.742Z,29.40
2017-06-05T16:01:27.296Z,29.50
2017-06-05T16:03:54.830Z,29.30
2017-06-05T16:06:22.355Z,29.20
2017-06-05T16:08:49.920Z,28.70
2017-06-05T16:11:17.410Z,28.60
2017-06-05T16:13:44.968Z,28.70
2017-06-05T16:16:12.504Z,28.50
2017-06-05T16:18:40.079Z,28.60
2017-06-05T16:21:07.654Z,28.60
2017-06-05T16:23:35.202Z,28.90
2017-06-05T16:26:02.752Z,28.90
2017-06-05T16:28:30.281Z,28.20
2017-06-05T16:30:57.846Z,27.90
2017-06-05T16:33:25.391Z,27.70
2017-06-05T16:35:52.923Z,27.80
2017-06-05T16:38:20.472Z,27.60
2017-06-05T16:40:48.072Z,27.60
2017-06-05T16:43:15.643Z,27.70
2017-06-05T16:45:43.211Z,27.50
2017-06-05T16:48:10.735Z,27.50
2017-06-05T16:50:39.071Z,27.60
2017-06-05T16:53:06.580Z,27.60
2017-06-05T16:55:34.117Z,27.60
2017-06-05T16:58:02.407Z,28.00
2017-06-05T17:00:30.748Z,28.20
2017-06-05T17:02:58.291Z,28.20
2017-06-05T17:05:25.828Z,27.90
2017-06-05T17:07:53.355Z,28.20
2017-06-05T17:10:20.951Z,28.30
2017-06-05T17:12:48.460Z,27.80
2017-06-05T17:15:16.020Z,27.60
2017-06-05T17:17:43.551Z,27.40
2017-06-05T17:20:11.122Z,27.50
2017-06-05T17:22:38.653Z,27.60
2017-06-05T17:25:06.176Z,27.80
2017-06-05T17:27:34.490Z,27.20
2017-06-05T17:30:02.078Z,27.20
2017-06-05T17:32:29.660Z,27.40
2017-06-05T17:34:57.235Z,27.40
2017-06-05T17:37:24.753Z,27.00
2017-06-05T17:39:52.277Z,26.60
2017-06-05T17:42:19.846Z,26.60
2017-06-05T17:44:47.400Z,26.70
2017-06-05T17:47:14.910Z,26.70
2017-06-05T17:49:42.440Z,27.00
2017-06-05T17:52:09.987Z,27.00
2017-06-05T17:54:37.510Z,26.80
2017-06-05T17:57:05.827Z,26.80
2017-06-05T17:59:33.352Z,26.70
2017-06-05T18:02:00.946Z,26.70
2017-06-05T18:04:28.458Z,26.70
2017-06-05T18:06:56.034Z,26.90
2017-06-05T18:09:24.343Z,27.00
2017-06-05T18:11:51.927Z,27.00
2017-06-05T18:14:19.491Z,27.00
2017-06-05T18:16:47.013Z,27.00
2017-06-05T18:19:14.580Z,26.90
2017-06-05T18:21:42.153Z,27.00
2017-06-05T18:24:10.491Z,26.80
2017-06-05T18:26:38.070Z,26.70
2017-06-05T18:29:05.592Z,26.80
2017-06-05T18:31:33.158Z,26.90
2017-06-05T18:34:01.465Z,26.90
2017-06-05T18:36:29.027Z,26.80
2017-06-05T18:38:56.572Z,26.70
2017-06-05T18:41:24.137Z,26.50
2017-06-05T18:43:51.677Z,26.40
2017-06-05T18:46:20.000Z,26.20
2017-06-05T18:48:47.538Z,26.20
2017-06-05T18:51:15.109Z,26.20
2017-06-05T18:53:42.627Z,26.40
2017-06-05T18:56:10.152Z,26.40
2017-06-05T18:58:37.707Z,26.40
2017-06-05T19:01:05.246Z,26.40
2017-06-05T19:03:32.768Z,26.20
2017-06-05T19:06:01.075Z,26.40
2017-06-05T19:08:28.599Z,26.30
2017-06-05T19:10:56.126Z,26.20
2017-06-05T19:13:23.668Z,26.10
2017-06-05T19:15:51.230Z,26.00
2017-06-05T19:18:18.780Z,26.00
2017-06-05T19:20:46.372Z,25.90
2017-06-05T19:23:13.891Z,25.70
2017-06-05T19:25:41.439Z,25.60
2017-06-05T19:28:08.971Z,25.50
2017-06-05T19:30:36.527Z,25.40
2017-06-05T19:33:04.854Z,25.30
2017-06-05T19:35:32.390Z,25.20
2017-06-05T19:38:00.722Z,25.20
2017-06-05T19:40:28.300Z,25.20
2017-06-05T19:42:55.862Z,25.00
2017-06-05T19:45:23.419Z,24.90
2017-06-05T19:47:50.994Z,24.90
2017-06-05T19:50:19.309Z,24.80
2017-06-05T19:52:46.856Z,24.80
2017-06-05T19:55:14.383Z,24.60
2017-06-05T19:57:41.918Z,24.70
2017-06-05T20:00:09.451Z,24.70
2017-06-05T20:02:37.038Z,24.60
2017-06-05T20:05:04.544Z,24.60
2017-06-05T20:07:32.857Z,24.50
2017-06-05T20:10:00.504Z,24.50
2017-06-05T20:12:28.056Z,24.40
2017-06-05T20:14:55.592Z,24.40
2017-06-05T20:17:23.910Z,24.50
2017-06-05T20:19:51.459Z,24.40
2017-06-05T20:22:19.011Z,24.30
2017-06-05T20:24:46.526Z,24.20
2017-06-05T20:27:14.068Z,24.10
2017-06-05T20:29:41.642Z,24.10
2017-06-05T20:32:09.217Z,24.10
2017-06-05T20:34:36.743Z,24.00
2017-06-05T20:37:04.281Z,24.10
2017-06-05T20:39:31.787Z,23.90
2017-06-05T20:41:59.356Z,23.90
2017-06-05T20:44:26.900Z,23.80
2017-06-05T20:46:54.427Z,24.00
2017-06-05T20:49:21.940Z,23.90
2017-06-05T20:51:49.480Z,23.90
2017-06-05T20:54:17.071Z,23.80
2017-06-05T20:56:45.395Z,23.80
2017-06-05T20:59:12.949Z,23.80
2017-06-05T21:01:40.499Z,23.70
2017-06-05T21:04:08.032Z,23.70
2017-06-05T21:06:36.336Z,23.60
2017-06-05T21:09:03.864Z,23.60
2017-06-05T21:11:32.191Z,23.50
2017-06-05T21:13:59.705Z,23.40
2017-06-05T21:16:27.981Z,23.40
2017-06-05T21:18:56.292Z,23.30
2017-06-05T21:21:23.860Z,23.30
2017-06-05T21:23:51.388Z,23.30
2017-06-05T21:26:19.689Z,23.00
2017-06-05T21:28:47.232Z,23.00
2017-06-05T21:31:14.787Z,23.00
2017-06-05T21:33:43.097Z,23.00
2017-06-05T21:36:10.667Z,23.00
2017-06-05T21:38:38.234Z,23.00
2017-06-05T21:41:05.750Z,22.90
2017-06-05T21:43:33.282Z,22.90
2017-06-05T21:46:00.804Z,22.80
2017-06-05T21:48:28.330Z,22.80
2017-06-05T21:50:55.890Z,22.80
2017-06-05T21:53:23.434Z,22.70
2017-06-05T21:55:51.044Z,22.70
2017-06-05T21:58:18.611Z,22.60
2017-06-05T22:00:46.138Z,22.60
2017-06-05T22:03:13.698Z,22.60
2017-06-05T22:05:41.235Z,22.50
2017-06-05T22:08:09.514Z,22.50
2017-06-05T22:10:37.791Z,22.40
2017-06-05T22:13:05.340Z,22.40
2017-06-05T22:15:33.625Z,22.40
2017-06-05T22:18:01.935Z,22.40
2017-06-05T22:20:29.445Z,22.40
2017-06-05T22:22:56.963Z,22.30
2017-06-05T22:25:24.507Z,22.40
2017-06-05T22:27:52.045Z,22.30
2017-06-05T22:30:20.328Z,21.90
2017-06-05T22:32:48.649Z,21.60
2017-06-05T22:35:16.169Z,21.50
2017-06-05T22:37:43.702Z,21.80
2017-06-05T22:40:11.203Z,21.90
2017-06-05T22:42:38.762Z,22.00
2017-06-05T22:45:06.285Z,22.00
2017-06-05T22:47:34.584Z,22.10
2017-06-05T22:50:02.867Z,22.20
2017-06-05T22:52:30.440Z,22.10
2017-06-05T22:54:58.005Z,22.00
2017-06-05T22:57:25.527Z,21.70
2017-06-05T22:59:53.855Z,21.50
2017-06-05T23:02:21.366Z,21.40
2017-06-05T23:04:48.895Z,21.50
2017-06-05T23:07:16.444Z,21.40
2017-06-05T23:09:43.993Z,21.50
2017-06-05T23:12:11.512Z,21.70
2017-06-05T23:14:39.816Z,21.80
2017-06-05T23:17:07.372Z,21.80
2017-06-05T23:19:34.909Z,21.90
2017-06-05T23:22:03.245Z,21.80
2017-06-05T23:24:30.773Z,21.80
2017-06-05T23:26:58.302Z,21.70
2017-06-05T23:29:26.626Z,21.70
2017-06-05T23:31:54.176Z,21.70
2017-06-05T23:34:21.737Z,21.60
2017-06-05T23:36:49.267Z,21.60
2017-06-05T23:39:17.584Z,21.80
2017-06-05T23:41:45.119Z,21.80
2017-06-05T23:44:12.672Z,21.70
2017-06-05T23:46:40.207Z,21.70
2017-06-05T23:49:07.766Z,21.90
2017-06-05T23:51:35.262Z,21.80
2017-06-05T23:54:02.786Z,21.80
2017-06-05T23:56:30.314Z,21.70
2017-06-05T23:58:57.849Z,21.40
